Flight Track Log - Related Links

Times and Time Zones

All times are in EDT time to prevent confusion due to time zone crossing. See the GJS3618 flight status page for this flight to view local times or setup timezone preferences in your user account.

Time Position Orientation Groundspeed Altitude Reporting Facility
EDT Latitude Longitude Course Direction KTS MPH feet Rate Location/Type
Wed 03:10:44 PM 42.0333 -87.8833 20° North 177 204 3,000  Level Chicago TRACON
Wed 03:11:38 PM 42.0833 -87.8667 14° North 260 299 4,300 1,178 Climbing Chicago TRACON
Wed 03:12:31 PM 42.1492 -87.8306 22° Northeast 280 322 5,100 1,043 Climbing Chicago Center
Wed 03:13:33 PM 42.2281 -87.8192 North 286 329 6,300 1,951 Climbing Chicago Center
Wed 03:14:34 PM 42.3092 -87.8108 North 292 336 9,100 2,803 Climbing Chicago Center
Wed 03:15:35 PM 42.3961 -87.8019 North 300 345 12,000 2,390 Climbing Chicago Center
Wed 03:16:00 PM 42.6590 -87.6788 20° North  Level FlightAware Approximate
Wed 03:16:37 PM 42.4819 -87.7861 North 310 357 14,000  Level Chicago Center
Wed 03:17:38 PM 42.5953 -87.7333 19° North 373 429 15,200 1,415 Climbing Chicago Center
Wed 03:18:40 PM 42.7044 -87.6858 18° North 401 461 16,900 1,610 Climbing Chicago Center
Wed 03:19:41 PM 42.8083 -87.6167 26° Northeast 422 486 18,500 1,561 Climbing Chicago Center
Wed 03:20:43 PM 42.8450 -87.4603 72° East 441 507 20,100 1,415 Climbing Chicago Center
Wed 03:21:44 PM 42.8614 -87.3083 82° East 447 514 21,400 1,328 Climbing Chicago Center
Wed 03:22:45 PM 42.8800 -87.1372 82° East 456 525 22,800 1,463 Climbing Chicago Center
Wed 03:23:47 PM 42.9014 -86.9275 82° East 465 535 24,400 1,171 Climbing Chicago Center
Wed 03:24:48 PM 42.9206 -86.7478 82° East 474 545 25,200 732 Climbing Chicago Center
Wed 03:25:50 PM 42.9394 -86.5622 82° East 491 565 25,900 634 Climbing Chicago Center
Wed 03:26:51 PM 42.9578 -86.3708 82° East 507 583 26,500 537 Climbing Chicago Center
Wed 03:27:53 PM 42.9764 -86.1783 82° East 515 593 27,000 244 Climbing Chicago Center
Wed 03:28:54 PM 42.9919 -85.9928 83° East 513 590 27,000 683 Level Chicago Center
Wed 03:29:56 PM 43.0144 -85.7711 82° East 510 587 28,400 1,171 Climbing Chicago Center
Wed 03:30:57 PM 43.0325 -85.5858 82° East 499 574 29,400 984 Climbing Chicago Center
Wed 03:31:58 PM 43.0489 -85.3969 83° East 501 577 30,400 1,024 Climbing Chicago Center
Wed 03:33:00 PM 43.0661 -85.2075 83° East 504 580 31,500 1,024 Climbing Chicago Center
Wed 03:34:01 PM 43.0831 -85.0178 83° East 503 579 32,500 976 Climbing Chicago Center
Wed 03:35:03 PM 43.0989 -84.8294 83° East 501 577 33,500 976 Climbing Chicago Center
Wed 03:36:04 PM 43.1150 -84.6408 83° East 500 575 34,500 732 Climbing Chicago Center
Wed 03:37:06 PM 43.1325 -84.4161 84° East 498 573 35,000 312 Climbing Chicago Center
Wed 03:37:21 PM 43.1317 -84.3672 91° East 495 570 34,900 -160 Descending Cleveland Center
Wed 03:38:21 PM 43.1478 -84.1972 83° East 495 570 34,800 -550 Descending Cleveland Center
Wed 03:39:21 PM 43.1639 -84.0103 83° East 495 570 33,800 -900 Descending Cleveland Center
Wed 03:40:21 PM 43.1775 -83.8231 84° East 495 570 33,000 -400 Descending Cleveland Center
Wed 03:41:21 PM 43.1908 -83.6358 84° East 495 570 33,000  Level Cleveland Center
Wed 03:42:21 PM 43.2064 -83.4428 84° East 500 575 33,000  Level Cleveland Center
Wed 03:43:21 PM 43.2192 -83.2497 85° East 505 581 33,000  Level Cleveland Center
Wed 03:44:21 PM 43.2319 -83.0564 85° East 505 581 33,000  Level Cleveland Center
Wed 03:45:21 PM 43.2464 -82.8633 84° East 505 581 33,000  Level Cleveland Center
Wed 03:46:21 PM 43.2481 -82.6639 89° East 505 581 33,000  Level Cleveland Center
Wed 03:46:43 PM 43.2500 -82.5667 88° East 520 598 33,000  Level Toronto Center
Wed 03:47:43 PM 43.2333 -82.3500 96° East 520 598 33,000  Level Toronto Center
Wed 03:48:43 PM 43.2167 -82.1667 97° East 520 598 33,000  Level Toronto Center
Wed 03:49:43 PM 43.2167 -81.9667 90° East 520 598 33,000  Level Toronto Center
Wed 03:50:43 PM 43.2167 -81.7833 90° East 520 598 33,000  Level Toronto Center
Wed 03:51:43 PM 43.2167 -81.5833 90° East 520 598 33,000  Level Toronto Center
Wed 03:52:43 PM 43.2000 -81.3667 96° East 520 598 33,000  Level Toronto Center
Wed 03:53:43 PM 43.2000 -81.1833 90° East 520 598 33,000  Level Toronto Center
Wed 03:54:43 PM 43.1833 -80.9833 96° East 520 598 33,000  Level Toronto Center
Wed 03:55:43 PM 43.2000 -80.7833 83° East 520 598 33,000  Level Toronto Center
Wed 03:56:43 PM 43.1833 -80.5667 96° East 520 598 33,000  Level Toronto Center
Wed 03:57:43 PM 43.1833 -80.3833 90° East 520 598 33,000  Level Toronto Center
Wed 03:58:43 PM 43.1667 -80.1833 96° East 510 587 33,000  Level Toronto Center
Wed 03:59:43 PM 43.1667 -80.0000 90° East 520 598 33,000  Level Toronto Center
Wed 04:00:43 PM 43.1500 -79.8000 96° East 510 587 33,000  Level Toronto Center
Wed 04:01:43 PM 43.1500 -79.6167 90° East 510 587 33,000  Level Toronto Center
Wed 04:02:43 PM 43.1333 -79.4000 96° East 510 587 33,000  Level Toronto Center
Wed 04:03:43 PM 43.1333 -79.2167 90° East 500 575 33,000  Level Toronto Center
Wed 04:04:43 PM 43.1333 -79.0333 90° East 500 575 33,000  Level Toronto Center
Wed 04:05:43 PM 43.1833 -78.8500 69° East 500 575 33,000  Level Toronto Center
Wed 04:06:21 PM 43.2028 -78.7775 70° East 497 572 33,000  Level Cleveland Center
Wed 04:07:21 PM 43.2453 -78.5883 73° East 502 578 33,000 -50 Level Cleveland Center
Wed 04:08:21 PM 43.2858 -78.4072 73° East 508 585 32,900 -600 Descending Cleveland Center
Wed 04:09:21 PM 43.3261 -78.2231 73° East 502 578 31,800 -1,100 Descending Cleveland Center
Wed 04:10:21 PM 43.3678 -78.0331 73° East 502 578 30,700 -1,100 Descending Cleveland Center
Wed 04:11:21 PM 43.4031 -77.8403 76° East 507 583 29,600 -850 Descending Cleveland Center
Wed 04:12:21 PM 43.4003 -77.6431 91° East 507 583 29,000 -300 Descending Cleveland Center
Wed 04:13:21 PM 43.3703 -77.4531 102° East 507 583 29,000  Level Cleveland Center
Wed 04:14:21 PM 43.3422 -77.2661 102° East 502 578 29,000  Level Cleveland Center
Wed 04:15:21 PM 43.3117 -77.0736 102° East 502 578 29,000  Level Cleveland Center
Wed 04:16:21 PM 43.2803 -76.8731 102° East 502 578 29,000 -62 Level Cleveland Center
Wed 04:18:35 PM 43.2153 -76.4606 102° East 509 586 28,800 -308 Descending Boston Center
Wed 04:19:36 PM 43.1842 -76.2733 103° East 504 580 28,000 -397 Descending Boston Center
Wed 04:20:36 PM 43.1531 -76.0833 103° East 504 580 28,000 -51 Level Boston Center
Wed 04:21:34 PM 43.1214 -75.8936 103° East 509 586 27,900 -966 Descending Boston Center
Wed 04:22:34 PM 43.0892 -75.7128 104° East 498 573 26,100 -1,884 Descending Boston Center
Wed 04:23:35 PM 43.0544 -75.5375 105° East 492 566 24,100 -1,537 Descending Boston Center
Wed 04:24:35 PM 42.9978 -75.3956 119° Southeast 473 544 23,000 -1,450 Descending Boston Center
Wed 04:25:35 PM 42.9411 -75.2394 116° Southeast 462 532 21,200 -2,132 Descending Boston Center
Wed 04:26:36 PM 42.8867 -75.0842 116° Southeast 457 526 18,700 -2,521 Descending Boston Center
Wed 04:27:34 PM 42.8294 -74.9314 117° Southeast 457 526 16,200 -2,602 Descending Boston Center
Wed 04:28:29 PM 42.7956 -74.7717 106° East 432 497 13,800 -2,328 Descending Boston Center
Wed 04:29:30 PM 42.7861 -74.6156 95° East 402 463 11,700 -1,438 Descending Boston Center
Wed 04:30:30 PM 42.7803 -74.4711 93° East 385 443 10,900 -1,258 Descending Boston Center
Wed 04:31:34 PM 42.7428 -74.3542 114° Southeast 351 404 9,100 -1,922 Descending Boston Center
Wed 04:32:38 PM 42.7031 -74.2342 114° Southeast 312 359 6,800 -2,115 Descending Boston Center
Wed 04:33:36 PM 42.6669 -74.1456 119° Southeast 299 344 4,800 -1,388 Descending Boston Center
Wed 04:34:39 PM 42.6097 -74.0622 133° Southeast 251 289 4,000 -397 Descending Boston Center
Wed 04:35:37 PM 42.5922 -73.9800 106° East 257 296 4,000 -470 Level Boston Center
Wed 04:36:34 PM 42.5828 -73.8922 98° East 215 247 3,100 -814 Descending Boston Center
Wed 04:37:35 PM 42.5919 -73.8247 80° East 204 235 2,400 -590 Descending Boston Center
Wed 04:38:36 PM 42.6403 -73.8006 20° North 180 207 1,900 -516 Descending Boston Center
Wed 04:39:43 PM 42.6861 -73.8042 357° North 143 165 1,300 -590 Descending Boston Center
Wed 04:40:38 PM 42.7236 -73.8081 356° North 128 147 700 11,625 Descending Boston Center
Wed 04:41:35 PM 42.5892 -73.5033 121° Southeast 204 235 23,000 23,474 Climbing Boston Center

Login

Don't have an account? Register now (free) for customized features, flight alerts, and more!